sensor_id;sensor_type;location;lat;lon;timestamp;pressure;altitude;pressure_sealevel;temperature;humidity
62697;BME280;48761;42.680;23.312;2022-09-09T00:00:32;95080.78;;;27.38;45.22
62697;BME280;48761;42.680;23.312;2022-09-09T00:03:17;95074.69;;;27.36;45.07
62697;BME280;48761;42.680;23.312;2022-09-09T00:06:06;95069.25;;;27.36;45.28
62697;BME280;48761;42.680;23.312;2022-09-09T00:11:34;95072.19;;;27.35;45.25
62697;BME280;48761;42.680;23.312;2022-09-09T00:14:03;95071.34;;;27.34;45.05
62697;BME280;48761;42.680;23.312;2022-09-09T00:16:38;95072.59;;;27.31;45.06
62697;BME280;48761;42.680;23.312;2022-09-09T00:24:29;95055.41;;;27.24;45.06
62697;BME280;48761;42.680;23.312;2022-09-09T00:27:04;95054.53;;;27.30;45.10
62697;BME280;48761;42.680;23.312;2022-09-09T00:30:00;95048.28;;;27.30;45.20
62697;BME280;48761;42.680;23.312;2022-09-09T00:32:30;95046.59;;;27.29;45.16
62697;BME280;48761;42.680;23.312;2022-09-09T00:35:04;95047.44;;;27.29;45.13
62697;BME280;48761;42.680;23.312;2022-09-09T00:37:37;95035.03;;;27.27;45.46
62697;BME280;48761;42.680;23.312;2022-09-09T00:40:16;95031.25;;;27.28;45.12
62697;BME280;48761;42.680;23.312;2022-09-09T00:42:44;95031.47;;;27.26;45.44
62697;BME280;48761;42.680;23.312;2022-09-09T00:52:51;95032.72;;;27.24;45.41
62697;BME280;48761;42.680;23.312;2022-09-09T00:55:41;95034.81;;;27.22;45.44
62697;BME280;48761;42.680;23.312;2022-09-09T00:58:09;95038.59;;;27.20;45.33
62697;BME280;48761;42.680;23.312;2022-09-09T01:00:42;95036.72;;;27.21;45.53
62697;BME280;48761;42.680;23.312;2022-09-09T01:06:34;95041.53;;;27.19;45.21
62697;BME280;48761;42.680;23.312;2022-09-09T01:17:20;95041.94;;;27.16;45.55
62697;BME280;48761;42.680;23.312;2022-09-09T01:28:17;95043.19;;;27.13;45.60
62697;BME280;48761;42.680;23.312;2022-09-09T01:30:45;95033.34;;;27.12;45.44
62697;BME280;48761;42.680;23.312;2022-09-09T01:33:16;95033.34;;;27.12;45.50
62697;BME280;48761;42.680;23.312;2022-09-09T01:36:24;95038.13;;;27.10;45.68
62697;BME280;48761;42.680;23.312;2022-09-09T01:38:52;95048.41;;;27.08;45.74
62697;BME280;48761;42.680;23.312;2022-09-09T01:41:19;95049.03;;;27.10;45.77
62697;BME280;48761;42.680;23.312;2022-09-09T01:43:45;95050.72;;;27.11;45.46
62697;BME280;48761;42.680;23.312;2022-09-09T01:46:11;95046.31;;;27.10;45.51
62697;BME280;48761;42.680;23.312;2022-09-09T01:48:38;95047.38;;;27.09;45.54
62697;BME280;48761;42.680;23.312;2022-09-09T01:51:05;95053.03;;;27.07;45.59
62697;BME280;48761;42.680;23.312;2022-09-09T01:53:31;95055.78;;;27.07;45.68
62697;BME280;48761;42.680;23.312;2022-09-09T02:05:01;95049.88;;;27.04;45.70
62697;BME280;48761;42.680;23.312;2022-09-09T02:07:38;95048.19;;;27.03;45.66
62697;BME280;48761;42.680;23.312;2022-09-09T02:10:20;95059.09;;;27.03;45.60
62697;BME280;48761;42.680;23.312;2022-09-09T02:12:50;95048.19;;;27.03;45.86
62697;BME280;48761;42.680;23.312;2022-09-09T02:21:07;95031.19;;;27.01;45.82
62697;BME280;48761;42.680;23.312;2022-09-09T02:23:34;95032.25;;;27.00;46.01
62697;BME280;48761;42.680;23.312;2022-09-09T02:26:01;95032.25;;;27.00;45.60
62697;BME280;48761;42.680;23.312;2022-09-09T02:28:29;95038.75;;;26.98;45.79
62697;BME280;48761;42.680;23.312;2022-09-09T02:30:56;95037.06;;;26.97;45.97
62697;BME280;48761;42.680;23.312;2022-09-09T02:33:27;95044.22;;;26.98;46.00
62697;BME280;48761;42.680;23.312;2022-09-09T02:35:55;95041.47;;;26.98;45.85
62697;BME280;48761;42.680;23.312;2022-09-09T02:38:25;95049.88;;;26.97;45.92
62697;BME280;48761;42.680;23.312;2022-09-09T02:40:53;95052.78;;;26.95;46.09
62697;BME280;48761;42.680;23.312;2022-09-09T02:43:19;95054.47;;;26.96;46.05
62697;BME280;48761;42.680;23.312;2022-09-09T02:51:31;95059.31;;;26.94;45.82
62697;BME280;48761;42.680;23.312;2022-09-09T02:56:46;95056.59;;;26.94;46.08
62697;BME280;48761;42.680;23.312;2022-09-09T02:59:14;95054.88;;;26.93;46.08
62697;BME280;48761;42.680;23.312;2022-09-09T03:01:40;95059.50;;;26.93;45.92
62697;BME280;48761;42.680;23.312;2022-09-09T03:04:06;95060.75;;;26.90;45.79
62697;BME280;48761;42.680;23.312;2022-09-09T03:06:31;95055.28;;;26.90;46.05
62697;BME280;48761;42.680;23.312;2022-09-09T03:08:57;95057.41;;;26.88;45.76
62697;BME280;48761;42.680;23.312;2022-09-09T03:11:23;95063.69;;;26.89;45.93
62697;BME280;48761;42.680;23.312;2022-09-09T03:13:49;95058.25;;;26.89;45.87
62697;BME280;48761;42.680;23.312;2022-09-09T03:16:15;95058.25;;;26.89;45.79
62697;BME280;48761;42.680;23.312;2022-09-09T03:18:41;95062.84;;;26.88;45.88
62697;BME280;48761;42.680;23.312;2022-09-09T03:21:07;95058.47;;;26.87;45.74
62697;BME280;48761;42.680;23.312;2022-09-09T03:23:33;95057.41;;;26.88;45.95
62697;BME280;48761;42.680;23.312;2022-09-09T03:25:58;95052.16;;;26.86;45.57
62697;BME280;48761;42.680;23.312;2022-09-09T03:28:24;95058.47;;;26.87;45.82
62697;BME280;48761;42.680;23.312;2022-09-09T03:30:50;95060.53;;;26.85;45.62
62697;BME280;48761;42.680;23.312;2022-09-09T03:33:16;95053.41;;;26.84;45.98
62697;BME280;48761;42.680;23.312;2022-09-09T03:35:46;95056.13;;;26.84;45.89
62697;BME280;48761;42.680;23.312;2022-09-09T03:38:12;95059.91;;;26.83;45.75
62697;BME280;48761;42.680;23.312;2022-09-09T03:40:38;95058.00;;;26.83;45.78
62697;BME280;48761;42.680;23.312;2022-09-09T03:43:04;95049.00;;;26.83;45.81
62697;BME280;48761;42.680;23.312;2022-09-09T03:45:30;95046.47;;;26.81;45.96
62697;BME280;48761;42.680;23.312;2022-09-09T03:47:56;95051.09;;;26.81;45.70
62697;BME280;48761;42.680;23.312;2022-09-09T03:50:21;95051.09;;;26.81;46.05
62697;BME280;48761;42.680;23.312;2022-09-09T03:52:47;95063.06;;;26.80;45.84
62697;BME280;48761;42.680;23.312;2022-09-09T03:55:13;95058.63;;;26.79;45.98
62697;BME280;48761;42.680;23.312;2022-09-09T03:57:39;95063.25;;;26.78;46.18
62697;BME280;48761;42.680;23.312;2022-09-09T04:00:06;95067.84;;;26.78;45.88
62697;BME280;48761;42.680;23.312;2022-09-09T04:02:33;95065.13;;;26.78;46.02
62697;BME280;48761;42.680;23.312;2022-09-09T04:04:59;95067.03;;;26.77;46.06
62697;BME280;48761;42.680;23.312;2022-09-09T04:07:25;95067.03;;;26.77;45.93
62697;BME280;48761;42.680;23.312;2022-09-09T04:09:52;95068.06;;;26.76;45.90
62697;BME280;48761;42.680;23.312;2022-09-09T04:12:17;95064.50;;;26.75;45.90
62697;BME280;48761;42.680;23.312;2022-09-09T04:14:43;95059.44;;;26.72;45.96
62697;BME280;48761;42.680;23.312;2022-09-09T04:17:11;95064.88;;;26.72;45.76
62697;BME280;48761;42.680;23.312;2022-09-09T04:19:36;95057.78;;;26.71;45.91
62697;BME280;48761;42.680;23.312;2022-09-09T04:22:04;95053.56;;;26.69;45.77
62697;BME280;48761;42.680;23.312;2022-09-09T04:24:29;95056.09;;;26.70;45.93
62697;BME280;48761;42.680;23.312;2022-09-09T04:26:55;95060.69;;;26.70;45.59
62697;BME280;48761;42.680;23.312;2022-09-09T04:29:21;95065.31;;;26.69;45.64
62697;BME280;48761;42.680;23.312;2022-09-09T04:31:47;95066.13;;;26.70;45.38
62697;BME280;48761;42.680;23.312;2022-09-09T04:34:13;95061.53;;;26.70;45.31
62697;BME280;48761;42.680;23.312;2022-09-09T04:36:39;95063.22;;;26.71;45.54
62697;BME280;48761;42.680;23.312;2022-09-09T04:39:05;95063.63;;;26.75;45.00
62697;BME280;48761;42.680;23.312;2022-09-09T04:41:30;95073.28;;;26.78;45.43
62697;BME280;48761;42.680;23.312;2022-09-09T04:43:56;95078.75;;;26.78;44.98
62697;BME280;48761;42.680;23.312;2022-09-09T04:46:23;95069.09;;;26.68;44.25
62697;BME280;48761;42.680;23.312;2022-09-09T04:48:49;95066.09;;;26.49;44.31
62697;BME280;48761;42.680;23.312;2022-09-09T04:51:16;95065.13;;;26.28;44.41
62697;BME280;48761;42.680;23.312;2022-09-09T04:53:41;95064.63;;;26.11;44.76
62697;BME280;48761;42.680;23.312;2022-09-09T04:56:10;95063.50;;;25.99;45.04
62697;BME280;48761;42.680;23.312;2022-09-09T04:58:37;95062.81;;;25.90;44.76
62697;BME280;48761;42.680;23.312;2022-09-09T05:01:08;95056.94;;;25.86;45.09
62697;BME280;48761;42.680;23.312;2022-09-09T05:03:34;95055.22;;;25.85;45.44
62697;BME280;48761;42.680;23.312;2022-09-09T05:06:08;95049.56;;;25.86;45.88
62697;BME280;48761;42.680;23.312;2022-09-09T05:08:39;95039.34;;;25.89;46.17
62697;BME280;48761;42.680;23.312;2022-09-09T05:11:26;95036.44;;;25.90;45.63
62697;BME280;48761;42.680;23.312;2022-09-09T05:13:53;95045.22;;;25.92;45.43
62697;BME280;48761;42.680;23.312;2022-09-09T05:16:24;95058.00;;;25.92;45.11
62697;BME280;48761;42.680;23.312;2022-09-09T05:18:50;95061.34;;;25.94;45.44
62697;BME280;48761;42.680;23.312;2022-09-09T05:21:17;95053.63;;;25.97;45.17
62697;BME280;48761;42.680;23.312;2022-09-09T05:23:44;95040.88;;;25.98;44.82
62697;BME280;48761;42.680;23.312;2022-09-09T05:26:15;95046.94;;;26.00;44.26
62697;BME280;48761;42.680;23.312;2022-09-09T05:28:41;95043.19;;;26.01;44.87
62697;BME280;48761;42.680;23.312;2022-09-09T05:31:09;95047.66;;;26.16;44.95
62697;BME280;48761;42.680;23.312;2022-09-09T05:33:35;95037.69;;;26.37;45.98
62697;BME280;48761;42.680;23.312;2022-09-09T05:36:04;95039.72;;;26.57;46.11
62697;BME280;48761;42.680;23.312;2022-09-09T05:38:31;95039.53;;;26.72;46.51
62697;BME280;48761;42.680;23.312;2022-09-09T05:40:57;95043.13;;;26.86;45.70
62697;BME280;48761;42.680;23.312;2022-09-09T05:43:24;95039.59;;;26.99;45.59
62697;BME280;48761;42.680;23.312;2022-09-09T05:46:07;95052.00;;;27.15;45.89
62697;BME280;48761;42.680;23.312;2022-09-09T05:48:35;95060.00;;;27.24;45.87
62697;BME280;48761;42.680;23.312;2022-09-09T05:51:01;95056.47;;;27.30;45.44
62697;BME280;48761;42.680;23.312;2022-09-09T05:53:28;95051.63;;;27.39;45.65
62697;BME280;48761;42.680;23.312;2022-09-09T05:56:01;95053.31;;;27.47;45.48
62697;BME280;48761;42.680;23.312;2022-09-09T05:58:27;95055.41;;;27.51;45.42
62697;BME280;48761;42.680;23.312;2022-09-09T06:03:28;95054.56;;;27.64;45.10
62697;BME280;48761;42.680;23.312;2022-09-09T06:06:05;95062.09;;;27.76;45.15
62697;BME280;48761;42.680;23.312;2022-09-09T06:08:37;95065.91;;;27.82;44.97
62697;BME280;48761;42.680;23.312;2022-09-09T06:11:07;95069.25;;;27.84;45.42
62697;BME280;48761;42.680;23.312;2022-09-09T06:13:34;95062.34;;;27.88;43.63
62697;BME280;48761;42.680;23.312;2022-09-09T06:16:00;95065.47;;;27.92;44.04
62697;BME280;48761;42.680;23.312;2022-09-09T06:18:26;95062.53;;;28.00;42.83
62697;BME280;48761;42.680;23.312;2022-09-09T06:21:00;95065.47;;;28.05;44.07
62697;BME280;48761;42.680;23.312;2022-09-09T06:23:27;95067.97;;;28.07;44.26
62697;BME280;48761;42.680;23.312;2022-09-09T06:26:08;95059.13;;;28.12;43.70
62697;BME280;48761;42.680;23.312;2022-09-09T06:28:35;95058.47;;;28.16;43.90
62697;BME280;48761;42.680;23.312;2022-09-09T06:31:03;95069.00;;;28.19;43.56
62697;BME280;48761;42.680;23.312;2022-09-09T06:33:34;95067.06;;;28.27;43.57
62697;BME280;48761;42.680;23.312;2022-09-09T06:36:01;95056.56;;;28.30;43.48
62697;BME280;48761;42.680;23.312;2022-09-09T06:38:27;95055.06;;;28.35;42.96
62697;BME280;48761;42.680;23.312;2022-09-09T06:40:54;95050.66;;;28.40;43.35
62697;BME280;48761;42.680;23.312;2022-09-09T06:43:21;95051.72;;;28.46;43.16
62697;BME280;48761;42.680;23.312;2022-09-09T06:45:57;95052.72;;;28.52;43.08
62697;BME280;48761;42.680;23.312;2022-09-09T06:48:23;95049.38;;;28.57;43.15
62697;BME280;48761;42.680;23.312;2022-09-09T06:50:49;95056.06;;;28.61;43.02
62697;BME280;48761;42.680;23.312;2022-09-09T06:53:16;95068.22;;;28.65;43.12
62697;BME280;48761;42.680;23.312;2022-09-09T06:55:43;95068.22;;;28.65;42.87
62697;BME280;48761;42.680;23.312;2022-09-09T06:58:08;95072.00;;;28.71;42.71
62697;BME280;48761;42.680;23.312;2022-09-09T07:00:34;95075.78;;;28.76;42.52
62697;BME280;48761;42.680;23.312;2022-09-09T07:03:00;95077.22;;;28.79;42.46
62697;BME280;48761;42.680;23.312;2022-09-09T07:05:26;95069.41;;;28.83;42.69
62697;BME280;48761;42.680;23.312;2022-09-09T07:07:52;95067.75;;;28.82;42.28
62697;BME280;48761;42.680;23.312;2022-09-09T07:10:18;95061.63;;;28.86;42.34
62697;BME280;48761;42.680;23.312;2022-09-09T07:12:44;95060.97;;;28.91;42.21
62697;BME280;48761;42.680;23.312;2022-09-09T07:15:10;95071.47;;;28.94;42.11
62697;BME280;48761;42.680;23.312;2022-09-09T07:17:36;95062.19;;;28.95;42.12
62697;BME280;48761;42.680;23.312;2022-09-09T07:20:02;95060.06;;;28.97;42.09
62697;BME280;48761;42.680;23.312;2022-09-09T07:22:28;95068.28;;;28.97;41.79
62697;BME280;48761;42.680;23.312;2022-09-09T07:24:54;95064.25;;;29.00;42.00
62697;BME280;48761;42.680;23.312;2022-09-09T07:27:20;95056.91;;;29.01;41.92
62697;BME280;48761;42.680;23.312;2022-09-09T07:29:45;95063.59;;;29.05;41.49
62697;BME280;48761;42.680;23.312;2022-09-09T07:32:11;95050.75;;;29.05;41.05
62697;BME280;48761;42.680;23.312;2022-09-09T07:34:37;95049.50;;;29.08;41.56
62697;BME280;48761;42.680;23.312;2022-09-09T07:37:03;95047.63;;;29.08;41.32
62697;BME280;48761;42.680;23.312;2022-09-09T07:39:29;95052.44;;;29.13;41.43
62697;BME280;48761;42.680;23.312;2022-09-09T07:41:55;95051.38;;;29.14;41.35
62697;BME280;48761;42.680;23.312;2022-09-09T07:44:23;95050.31;;;29.15;41.58
62697;BME280;48761;42.680;23.312;2022-09-09T07:46:49;95063.56;;;29.18;41.29
62697;BME280;48761;42.680;23.312;2022-09-09T07:49:15;95058.69;;;29.20;41.29
62697;BME280;48761;42.680;23.312;2022-09-09T07:51:43;95064.16;;;29.20;41.06
62697;BME280;48761;42.680;23.312;2022-09-09T07:54:12;95063.13;;;29.22;40.87
62697;BME280;48761;42.680;23.312;2022-09-09T07:56:39;95055.97;;;29.20;40.80
62697;BME280;48761;42.680;23.312;2022-09-09T07:59:06;95056.56;;;29.23;40.06
62697;BME280;48761;42.680;23.312;2022-09-09T08:01:34;95056.13;;;29.26;40.22
62697;BME280;48761;42.680;23.312;2022-09-09T08:04:06;95055.69;;;29.29;40.62
62697;BME280;48761;42.680;23.312;2022-09-09T08:06:36;95050.22;;;29.29;40.70
62697;BME280;48761;42.680;23.312;2022-09-09T08:09:03;95053.19;;;29.27;39.80
62697;BME280;48761;42.680;23.312;2022-09-09T08:11:29;95052.34;;;29.27;40.43
62697;BME280;48761;42.680;23.312;2022-09-09T08:13:56;95053.19;;;29.27;40.53
62697;BME280;48761;42.680;23.312;2022-09-09T08:16:24;95047.91;;;29.33;39.92
62697;BME280;48761;42.680;23.312;2022-09-09T08:18:51;95053.91;;;29.41;39.95
62697;BME280;48761;42.680;23.312;2022-09-09T08:21:24;95051.72;;;29.50;40.13
62697;BME280;48761;42.680;23.312;2022-09-09T08:23:51;95053.34;;;29.58;40.35
62697;BME280;48761;42.680;23.312;2022-09-09T08:26:20;95054.38;;;29.64;39.45
62697;BME280;48761;42.680;23.312;2022-09-09T08:28:46;95051.59;;;29.71;39.52
62697;BME280;48761;42.680;23.312;2022-09-09T08:31:15;95041.03;;;29.74;40.18
62697;BME280;48761;42.680;23.312;2022-09-09T08:33:43;95044.63;;;29.75;39.92
62697;BME280;48761;42.680;23.312;2022-09-09T08:36:11;95036.84;;;29.72;39.80
62697;BME280;48761;42.680;23.312;2022-09-09T08:38:37;95048.22;;;29.69;40.90
62697;BME280;48761;42.680;23.312;2022-09-09T09:06:04;95040.75;;;29.57;44.54
62697;BME280;48761;42.680;23.312;2022-09-09T09:08:47;95036.94;;;29.58;44.37
62697;BME280;48761;42.680;23.312;2022-09-09T09:11:17;95038.38;;;29.61;44.07
62697;BME280;48761;42.680;23.312;2022-09-09T09:16:28;95036.88;;;29.65;43.68
62697;BME280;48761;42.680;23.312;2022-09-09T09:18:56;95031.63;;;29.63;43.22
62697;BME280;48761;42.680;23.312;2022-09-09T09:21:43;95038.09;;;29.69;43.06
62697;BME280;48761;42.680;23.312;2022-09-09T09:24:21;95037.25;;;29.69;42.60
62697;BME280;48761;42.680;23.312;2022-09-09T09:26:49;95032.03;;;29.67;42.33
62697;BME280;48761;42.680;23.312;2022-09-09T09:29:18;95029.47;;;29.72;41.87
62697;BME280;48761;42.680;23.312;2022-09-09T09:31:55;95040.97;;;29.81;42.28
62697;BME280;48761;42.680;23.312;2022-09-09T09:34:23;95031.72;;;29.82;42.47
62697;BME280;48761;42.680;23.312;2022-09-09T09:36:56;95034.97;;;29.91;41.79
62697;BME280;48761;42.680;23.312;2022-09-09T09:39:29;95028.69;;;29.91;42.04
62697;BME280;48761;42.680;23.312;2022-09-09T09:41:55;95022.56;;;29.88;41.41
62697;BME280;48761;42.680;23.312;2022-09-09T09:46:49;95007.22;;;29.87;41.49
62697;BME280;48761;42.680;23.312;2022-09-09T09:49:16;95010.13;;;29.93;41.76
62697;BME280;48761;42.680;23.312;2022-09-09T09:51:41;95010.28;;;29.98;41.56
62697;BME280;48761;42.680;23.312;2022-09-09T09:56:40;95010.13;;;29.93;41.64
62697;BME280;48761;42.680;23.312;2022-09-09T09:59:22;95000.81;;;29.94;41.71
62697;BME280;48761;42.680;23.312;2022-09-09T10:01:49;95002.72;;;29.93;41.61
62697;BME280;48761;42.680;23.312;2022-09-09T10:04:20;95008.34;;;29.98;41.36
62697;BME280;48761;42.680;23.312;2022-09-09T10:06:46;95009.63;;;29.96;39.92
62697;BME280;48761;42.680;23.312;2022-09-09T10:09:29;95018.50;;;29.98;40.91
62697;BME280;48761;42.680;23.312;2022-09-09T10:20:22;95018.50;;;29.98;41.15
62697;BME280;48761;42.680;23.312;2022-09-09T10:38:32;95022.28;;;29.97;40.06
62697;BME280;48761;42.680;23.312;2022-09-09T10:41:23;95026.06;;;29.96;40.45
62697;BME280;48761;42.680;23.312;2022-09-09T10:47:29;95035.38;;;29.95;40.93
62697;BME280;48761;42.680;23.312;2022-09-09T10:50:32;95031.19;;;29.92;41.84
62697;BME280;48761;42.680;23.312;2022-09-09T10:53:08;95029.97;;;29.88;41.72
62697;BME280;48761;42.680;23.312;2022-09-09T10:56:29;95027.44;;;29.86;41.11
62697;BME280;48761;42.680;23.312;2022-09-09T10:58:43;95026.16;;;29.89;41.32
62697;BME280;48761;42.680;23.312;2022-09-09T11:01:39;95028.72;;;29.84;41.73
62697;BME280;48761;42.680;23.312;2022-09-09T11:04:08;95019.47;;;29.85;41.87
62697;BME280;48761;42.680;23.312;2022-09-09T11:06:41;95024.09;;;29.84;41.81
62697;BME280;48761;42.680;23.312;2022-09-09T11:09:17;95019.47;;;29.85;41.44
62697;BME280;48761;42.680;23.312;2022-09-09T11:11:54;95025.16;;;29.83;41.83
62697;BME280;48761;42.680;23.312;2022-09-09T11:14:34;95020.31;;;29.85;41.53
62697;BME280;48761;42.680;23.312;2022-09-09T11:17:06;95013.13;;;29.84;41.64
62697;BME280;48761;42.680;23.312;2022-09-09T11:19:40;94998.84;;;29.82;41.71
62697;BME280;48761;42.680;23.312;2022-09-09T11:28:13;94998.84;;;29.82;42.15
62697;BME280;48761;42.680;23.312;2022-09-09T11:36:25;94973.59;;;29.80;42.22
62697;BME280;48761;42.680;23.312;2022-09-09T11:39:16;94972.94;;;29.78;42.61
62697;BME280;48761;42.680;23.312;2022-09-09T11:41:47;94958.50;;;29.71;43.04
62697;BME280;48761;42.680;23.312;2022-09-09T11:44:29;94953.69;;;29.66;42.79
62697;BME280;48761;42.680;23.312;2022-09-09T11:46:56;94956.03;;;29.62;43.12
62697;BME280;48761;42.680;23.312;2022-09-09T11:49:42;94935.03;;;29.56;43.16
62697;BME280;48761;42.680;23.312;2022-09-09T11:52:35;94916.31;;;29.53;43.19
62697;BME280;48761;42.680;23.312;2022-09-09T11:55:31;94926.06;;;29.49;43.43
62697;BME280;48761;42.680;23.312;2022-09-09T11:58:18;94933.06;;;29.45;43.57
62697;BME280;48761;42.680;23.312;2022-09-09T12:00:48;94934.09;;;29.43;43.62
62697;BME280;48761;42.680;23.312;2022-09-09T12:03:44;94934.56;;;29.40;43.92
62697;BME280;48761;42.680;23.312;2022-09-09T12:07:01;94935.63;;;29.39;43.91
62697;BME280;48761;42.680;23.312;2022-09-09T12:11:49;94920.69;;;29.35;44.00
62697;BME280;48761;42.680;23.312;2022-09-09T12:14:21;94916.69;;;29.38;43.95
62697;BME280;48761;42.680;23.312;2022-09-09T12:16:48;94911.44;;;29.36;43.87
62697;BME280;48761;42.680;23.312;2022-09-09T12:19:15;94914.19;;;29.36;43.95
62697;BME280;48761;42.680;23.312;2022-09-09T12:24:47;94915.22;;;29.35;43.61
62697;BME280;48761;42.680;23.312;2022-09-09T12:30:08;94910.84;;;29.34;43.58
62697;BME280;48761;42.680;23.312;2022-09-09T12:32:35;94907.09;;;29.28;42.99
62697;BME280;48761;42.680;23.312;2022-09-09T12:35:07;94907.94;;;29.29;43.15
62697;BME280;48761;42.680;23.312;2022-09-09T12:40:27;94891.97;;;29.26;43.40
62697;BME280;48761;42.680;23.312;2022-09-09T12:42:52;94890.91;;;29.27;43.67
62697;BME280;48761;42.680;23.312;2022-09-09T12:45:23;94897.44;;;29.26;43.33
62697;BME280;48761;42.680;23.312;2022-09-09T12:48:00;94893.84;;;29.25;43.42
62697;BME280;48761;42.680;23.312;2022-09-09T12:50:32;94893.03;;;29.25;43.74
62697;BME280;48761;42.680;23.312;2022-09-09T12:53:01;94886.50;;;29.26;43.46
62697;BME280;48761;42.680;23.312;2022-09-09T12:55:32;94885.66;;;29.25;43.70
62697;BME280;48761;42.680;23.312;2022-09-09T12:57:58;94884.34;;;29.28;43.75
62697;BME280;48761;42.680;23.312;2022-09-09T13:00:25;94873.88;;;29.25;43.93
62697;BME280;48761;42.680;23.312;2022-09-09T13:02:53;94877.44;;;29.25;44.05
62697;BME280;48761;42.680;23.312;2022-09-09T13:05:36;94868.41;;;29.25;44.23
62697;BME280;48761;42.680;23.312;2022-09-09T13:08:04;94871.75;;;29.27;44.14
62697;BME280;48761;42.680;23.312;2022-09-09T13:10:34;94858.28;;;29.25;44.03
62697;BME280;48761;42.680;23.312;2022-09-09T13:13:01;94861.88;;;29.26;44.43
62697;BME280;48761;42.680;23.312;2022-09-09T13:15:29;94859.13;;;29.26;44.21
62697;BME280;48761;42.680;23.312;2022-09-09T13:17:57;94862.94;;;29.25;44.46
62697;BME280;48761;42.680;23.312;2022-09-09T13:20:24;94857.47;;;29.25;44.30
62697;BME280;48761;42.680;23.312;2022-09-09T13:22:52;94855.78;;;29.24;44.54
62697;BME280;48761;42.680;23.312;2022-09-09T13:25:25;94849.47;;;29.23;44.42
62697;BME280;48761;42.680;23.312;2022-09-09T13:28:28;94843.63;;;29.19;44.54
62697;BME280;48761;42.680;23.312;2022-09-09T13:30:56;94844.84;;;29.24;44.63
62697;BME280;48761;42.680;23.312;2022-09-09T13:33:23;94850.31;;;29.24;44.75
62697;BME280;48761;42.680;23.312;2022-09-09T13:36:11;94839.97;;;29.26;44.51
62697;BME280;48761;42.680;23.312;2022-09-09T13:38:52;94833.44;;;29.27;44.46
62697;BME280;48761;42.680;23.312;2022-09-09T13:42:05;94835.59;;;29.25;44.12
62697;BME280;48761;42.680;23.312;2022-09-09T13:44:25;94824.63;;;29.25;44.22
62697;BME280;48761;42.680;23.312;2022-09-09T13:49:29;94819.63;;;29.22;44.46
62697;BME280;48761;42.680;23.312;2022-09-09T13:52:12;94827.38;;;29.25;44.64
62697;BME280;48761;42.680;23.312;2022-09-09T13:54:40;94814.50;;;29.25;44.68
62697;BME280;48761;42.680;23.312;2022-09-09T13:57:25;94813.69;;;29.25;44.63
62697;BME280;48761;42.680;23.312;2022-09-09T13:59:54;94825.25;;;29.27;44.69
62697;BME280;48761;42.680;23.312;2022-09-09T14:02:20;94815.59;;;29.24;44.32
62697;BME280;48761;42.680;23.312;2022-09-09T14:04:46;94826.53;;;29.24;44.33
62697;BME280;48761;42.680;23.312;2022-09-09T14:07:14;94838.53;;;29.23;44.31
62697;BME280;48761;42.680;23.312;2022-09-09T14:09:41;94825.94;;;29.22;44.29
62697;BME280;48761;42.680;23.312;2022-09-09T14:12:11;94822.94;;;29.24;44.44
62697;BME280;48761;42.680;23.312;2022-09-09T14:14:38;94816.44;;;29.25;45.50
62697;BME280;48761;42.680;23.312;2022-09-09T14:17:04;94807.38;;;29.24;45.84
62697;BME280;48761;42.680;23.312;2022-09-09T14:19:30;94817.47;;;29.24;44.68
62697;BME280;48761;42.680;23.312;2022-09-09T14:21:57;94820.81;;;29.26;44.71
62697;BME280;48761;42.680;23.312;2022-09-09T14:24:23;94798.31;;;29.24;44.65
62697;BME280;48761;42.680;23.312;2022-09-09T14:26:49;94795.00;;;29.22;44.91
62697;BME280;48761;42.680;23.312;2022-09-09T14:29:15;94806.38;;;29.18;45.12
62697;BME280;48761;42.680;23.312;2022-09-09T14:31:41;94817.31;;;29.18;44.96
62697;BME280;48761;42.680;23.312;2022-09-09T14:34:07;94823.88;;;29.17;44.76
62697;BME280;48761;42.680;23.312;2022-09-09T14:36:33;94815.03;;;29.15;44.44
62697;BME280;48761;42.680;23.312;2022-09-09T14:38:59;94820.50;;;29.15;43.60
62697;BME280;48761;42.680;23.312;2022-09-09T14:41:24;94813.97;;;29.16;43.03
62697;BME280;48761;42.680;23.312;2022-09-09T14:43:51;94815.88;;;29.16;43.67
62697;BME280;48761;42.680;23.312;2022-09-09T14:46:18;94810.66;;;29.14;43.76
62697;BME280;48761;42.680;23.312;2022-09-09T14:48:45;94810.84;;;29.13;43.14
62697;BME280;48761;42.680;23.312;2022-09-09T14:51:13;94812.97;;;29.11;43.46
62697;BME280;48761;42.680;23.312;2022-09-09T14:53:40;94799.91;;;29.13;43.11
62697;BME280;48761;42.680;23.312;2022-09-09T14:56:08;94807.91;;;29.14;43.30
62697;BME280;48761;42.680;23.312;2022-09-09T14:58:35;94809.81;;;29.14;43.25
62697;BME280;48761;42.680;23.312;2022-09-09T15:01:03;94820.50;;;29.15;44.35
62697;BME280;48761;42.680;23.312;2022-09-09T15:03:29;94812.94;;;29.17;44.41
62697;BME280;48761;42.680;23.312;2022-09-09T15:05:55;94818.41;;;29.17;44.08
62697;BME280;48761;42.680;23.312;2022-09-09T15:08:21;94824.69;;;29.18;44.11
62697;BME280;48761;42.680;23.312;2022-09-09T15:10:47;94825.53;;;29.18;43.19
62697;BME280;48761;42.680;23.312;2022-09-09T15:13:17;94826.63;;;29.17;46.99
62697;BME280;48761;42.680;23.312;2022-09-09T15:15:43;94834.88;;;29.11;47.78
62697;BME280;48761;42.680;23.312;2022-09-09T15:18:09;94828.84;;;29.02;47.80
62697;BME280;48761;42.680;23.312;2022-09-09T15:20:35;94824.84;;;28.97;47.42
62697;BME280;48761;42.680;23.312;2022-09-09T15:23:01;94826.63;;;28.92;46.89
62697;BME280;48761;42.680;23.312;2022-09-09T15:25:27;94827.91;;;28.89;46.42
62697;BME280;48761;42.680;23.312;2022-09-09T15:27:53;94824.56;;;28.87;46.26
62697;BME280;48761;42.680;23.312;2022-09-09T15:30:18;94820.38;;;28.84;45.93
62697;BME280;48761;42.680;23.312;2022-09-09T15:32:44;94820.81;;;28.81;45.93